createdAt,value
2022-09-16T00:00:07.306Z,0.91
2022-09-16T00:00:38.716Z,0.95
2022-09-16T00:01:13.022Z,0.67
2022-09-16T00:01:44.532Z,0.72
2022-09-16T00:02:15.999Z,0.95
2022-09-16T00:02:47.446Z,1.06
2022-09-16T00:03:18.838Z,0.77
2022-09-16T00:03:50.253Z,0.81
2022-09-16T00:04:21.648Z,0.66
2022-09-16T00:04:53.051Z,0.66
2022-09-16T00:05:24.456Z,0.52
2022-09-16T00:05:55.872Z,0.54
2022-09-16T00:06:27.293Z,0.65
2022-09-16T00:06:58.688Z,0.74
2022-09-16T00:07:30.089Z,0.86
2022-09-16T00:08:01.487Z,0.66
2022-09-16T00:08:32.886Z,0.73
2022-09-16T00:09:04.308Z,1.26
2022-09-16T00:09:35.697Z,0.72
2022-09-16T00:10:07.084Z,0.84
2022-09-16T00:10:38.477Z,0.76
2022-09-16T00:11:09.870Z,0.53
2022-09-16T00:11:41.274Z,0.52
2022-09-16T00:12:12.677Z,0.57
2022-09-16T00:12:44.072Z,0.77
2022-09-16T00:13:15.466Z,1.08
2022-09-16T00:13:46.866Z,0.77
2022-09-16T00:14:18.383Z,0.77
2022-09-16T00:14:49.780Z,0.85
2022-09-16T00:15:21.173Z,0.67
2022-09-16T00:15:52.615Z,0.67
2022-09-16T00:16:24.155Z,0.49
2022-09-16T00:16:55.564Z,0.54
2022-09-16T00:17:26.956Z,0.82
2022-09-16T00:17:58.341Z,0.69
2022-09-16T00:18:29.735Z,0.60
2022-09-16T00:19:01.145Z,0.89
2022-09-16T00:19:32.643Z,0.89
2022-09-16T00:20:04.057Z,1.01
2022-09-16T00:20:35.514Z,0.71
2022-09-16T00:21:06.910Z,0.66
2022-09-16T00:21:38.325Z,0.61
2022-09-16T00:22:09.720Z,0.56
2022-09-16T00:22:41.114Z,0.72
2022-09-16T00:23:12.509Z,0.89
2022-09-16T00:23:43.953Z,1.06
2022-09-16T00:24:15.412Z,0.96
2022-09-16T00:24:46.830Z,0.77
2022-09-16T00:25:18.223Z,0.47
2022-09-16T00:25:49.628Z,0.78
2022-09-16T00:26:21.017Z,0.74
2022-09-16T00:26:52.404Z,0.70
2022-09-16T00:27:23.812Z,0.58
2022-09-16T00:27:55.191Z,0.93
2022-09-16T00:28:26.599Z,0.67
2022-09-16T00:28:58.013Z,0.81
2022-09-16T00:29:29.531Z,0.81
2022-09-16T00:30:00.926Z,1.00
2022-09-16T00:30:32.309Z,0.82
2022-09-16T00:31:03.831Z,0.81
2022-09-16T00:31:35.309Z,1.02
2022-09-16T00:32:06.729Z,0.62
2022-09-16T00:32:38.142Z,0.58
2022-09-16T00:33:09.541Z,0.88
2022-09-16T00:33:40.929Z,0.69
2022-09-16T00:34:12.317Z,0.63
2022-09-16T00:34:43.747Z,0.74
2022-09-16T00:35:15.143Z,0.93
2022-09-16T00:35:46.543Z,0.78
2022-09-16T00:36:17.939Z,0.71
2022-09-16T00:36:49.327Z,0.80
2022-09-16T00:37:20.718Z,0.92
2022-09-16T00:37:52.111Z,0.65
2022-09-16T00:38:23.516Z,0.64
2022-09-16T00:38:55.075Z,0.76
2022-09-16T00:39:26.654Z,0.75
2022-09-16T00:39:58.302Z,0.59
2022-09-16T00:40:29.817Z,1.02
2022-09-16T00:41:01.250Z,0.96
2022-09-16T00:41:32.651Z,0.89
2022-09-16T00:42:04.042Z,0.79
2022-09-16T00:42:35.462Z,0.87
2022-09-16T00:43:06.852Z,0.76
2022-09-16T00:43:38.236Z,0.64
2022-09-16T00:44:09.629Z,0.97
2022-09-16T00:44:41.085Z,1.00
2022-09-16T00:45:12.502Z,0.93
2022-09-16T00:45:43.905Z,0.92
2022-09-16T00:46:15.393Z,0.83
2022-09-16T00:46:46.839Z,0.64
2022-09-16T00:47:18.292Z,0.85
2022-09-16T00:47:49.680Z,0.76
2022-09-16T00:48:21.063Z,0.82
2022-09-16T00:48:52.455Z,0.69
2022-09-16T00:49:23.854Z,0.76
2022-09-16T00:49:55.240Z,0.66
2022-09-16T00:50:26.701Z,0.63
2022-09-16T00:50:58.095Z,0.78
2022-09-16T00:51:29.509Z,0.55
2022-09-16T00:52:00.896Z,0.79
2022-09-16T00:52:32.286Z,0.81
2022-09-16T00:53:03.678Z,0.91
2022-09-16T00:53:37.488Z,0.84
2022-09-16T00:54:12.230Z,0.40
2022-09-16T00:54:43.626Z,0.65
2022-09-16T00:55:15.013Z,0.73
2022-09-16T00:55:46.483Z,0.99
2022-09-16T00:56:17.881Z,0.71
2022-09-16T00:56:49.274Z,0.73
2022-09-16T00:57:20.659Z,0.91
2022-09-16T00:57:52.049Z,0.72
2022-09-16T00:58:23.442Z,0.63
2022-09-16T00:58:54.864Z,0.85
2022-09-16T00:59:26.281Z,0.71
2022-09-16T00:59:57.671Z,0.87
2022-09-16T01:00:29.115Z,1.04
2022-09-16T01:01:00.667Z,1.00
2022-09-16T01:01:32.130Z,0.91
2022-09-16T01:02:03.574Z,0.77
2022-09-16T01:02:34.986Z,0.60
2022-09-16T01:03:06.368Z,0.69
2022-09-16T01:03:37.756Z,0.88
2022-09-16T01:04:09.146Z,0.49
2022-09-16T01:04:40.543Z,0.76
2022-09-16T01:05:11.968Z,0.58
2022-09-16T01:05:43.361Z,0.88
2022-09-16T01:06:14.805Z,0.80
2022-09-16T01:06:46.199Z,1.11
2022-09-16T01:07:17.590Z,0.76
2022-09-16T01:07:48.981Z,0.77
2022-09-16T01:08:20.396Z,0.64
2022-09-16T01:08:51.791Z,0.90
2022-09-16T01:09:23.195Z,0.98
2022-09-16T01:09:54.579Z,1.08
2022-09-16T01:10:25.974Z,0.84
2022-09-16T01:10:57.374Z,0.71
2022-09-16T01:11:28.886Z,0.64
2022-09-16T01:12:00.286Z,0.65
2022-09-16T01:12:31.681Z,0.78
2022-09-16T01:13:03.070Z,0.68
2022-09-16T01:13:34.467Z,0.90
2022-09-16T01:14:05.878Z,0.62
2022-09-16T01:14:37.276Z,0.74
2022-09-16T01:15:08.691Z,0.73
2022-09-16T01:15:40.086Z,0.96
2022-09-16T01:16:11.586Z,0.58
2022-09-16T01:16:43.155Z,0.96
2022-09-16T01:17:14.535Z,0.78
2022-09-16T01:17:45.927Z,0.81
2022-09-16T01:18:17.322Z,0.88
2022-09-16T01:18:48.732Z,0.88
2022-09-16T01:19:20.130Z,0.72
2022-09-16T01:19:51.531Z,0.84
2022-09-16T01:20:22.936Z,0.80
2022-09-16T01:20:54.330Z,0.84
2022-09-16T01:21:25.730Z,0.61
2022-09-16T01:21:57.180Z,0.67
2022-09-16T01:22:28.614Z,0.99
2022-09-16T01:23:00.007Z,0.77
2022-09-16T01:23:31.416Z,0.86
2022-09-16T01:24:02.811Z,0.83
2022-09-16T01:24:34.226Z,0.90
2022-09-16T01:25:05.618Z,0.79
2022-09-16T01:25:37.018Z,0.73
2022-09-16T01:26:08.426Z,0.75
2022-09-16T01:26:39.816Z,0.80
2022-09-16T01:27:11.350Z,0.55
2022-09-16T01:27:42.744Z,0.69
2022-09-16T01:28:14.152Z,0.65
2022-09-16T01:28:45.540Z,0.53
2022-09-16T01:29:16.940Z,1.18
2022-09-16T01:29:48.333Z,1.53
2022-09-16T01:30:19.725Z,0.78
2022-09-16T01:30:51.118Z,0.94
2022-09-16T01:31:22.571Z,0.86
2022-09-16T01:31:54.004Z,0.98
2022-09-16T01:32:25.510Z,0.70
2022-09-16T01:32:56.909Z,0.84
2022-09-16T01:33:28.301Z,0.72
2022-09-16T01:33:59.688Z,0.58
2022-09-16T01:34:31.084Z,0.95
2022-09-16T01:35:02.505Z,0.78
2022-09-16T01:35:33.901Z,0.65
2022-09-16T01:36:05.289Z,0.68
2022-09-16T01:36:36.694Z,0.68
2022-09-16T01:37:08.084Z,0.85
2022-09-16T01:37:39.578Z,1.25
2022-09-16T01:38:10.975Z,0.81
2022-09-16T01:38:42.363Z,0.95
2022-09-16T01:39:13.754Z,0.71
2022-09-16T01:39:45.141Z,0.82
2022-09-16T01:40:16.539Z,0.95
2022-09-16T01:40:47.961Z,0.65
2022-09-16T01:41:19.368Z,0.72
2022-09-16T01:41:50.752Z,0.80
2022-09-16T01:42:22.162Z,0.67
2022-09-16T01:42:53.680Z,0.90
2022-09-16T01:43:25.085Z,0.77
2022-09-16T01:43:56.465Z,0.84
2022-09-16T01:44:27.849Z,0.88
2022-09-16T01:44:59.315Z,0.51
2022-09-16T01:45:30.715Z,0.90
2022-09-16T01:46:02.097Z,0.90
2022-09-16T01:46:33.534Z,0.79
2022-09-16T01:47:04.952Z,0.91
2022-09-16T01:47:36.332Z,0.83
2022-09-16T01:48:07.805Z,0.70
2022-09-16T01:48:39.213Z,1.00
2022-09-16T01:49:10.593Z,0.86
2022-09-16T01:49:41.984Z,1.07
2022-09-16T01:50:13.387Z,0.66
2022-09-16T01:50:44.772Z,0.91
2022-09-16T01:51:16.183Z,0.73
2022-09-16T01:51:47.565Z,0.94
2022-09-16T01:52:18.966Z,0.92
2022-09-16T01:52:50.350Z,0.59
2022-09-16T01:53:21.878Z,0.81
2022-09-16T01:53:53.305Z,0.96
2022-09-16T01:54:24.705Z,0.95
2022-09-16T01:54:56.117Z,1.01
2022-09-16T01:55:27.500Z,0.93
2022-09-16T01:55:58.962Z,0.58
2022-09-16T01:56:30.369Z,0.77
2022-09-16T01:57:01.751Z,1.07
2022-09-16T01:57:33.137Z,0.78
2022-09-16T01:58:04.534Z,0.77
2022-09-16T01:58:36.031Z,0.92
2022-09-16T01:59:07.434Z,0.84
2022-09-16T01:59:38.824Z,0.94
2022-09-16T02:00:10.227Z,1.09
2022-09-16T02:00:41.611Z,0.90
2022-09-16T02:01:12.995Z,0.73
2022-09-16T02:01:44.519Z,0.87
2022-09-16T02:02:16.076Z,0.80
2022-09-16T02:02:47.596Z,0.87
2022-09-16T02:03:19.030Z,0.95
2022-09-16T02:03:50.479Z,0.84
2022-09-16T02:04:21.866Z,0.71
2022-09-16T02:04:53.255Z,0.75
2022-09-16T02:05:24.639Z,0.54
2022-09-16T02:05:56.080Z,1.04
2022-09-16T02:06:27.469Z,0.80
2022-09-16T02:06:58.871Z,0.82
2022-09-16T02:07:30.277Z,1.02
2022-09-16T02:08:01.660Z,1.06
2022-09-16T02:08:33.049Z,0.85
2022-09-16T02:09:04.545Z,0.80
2022-09-16T02:09:35.923Z,1.10
2022-09-16T02:10:07.326Z,1.03
2022-09-16T02:10:38.706Z,0.90
2022-09-16T02:11:10.109Z,0.96
2022-09-16T02:11:41.494Z,0.86
2022-09-16T02:12:12.873Z,0.93
2022-09-16T02:12:44.278Z,0.78
2022-09-16T02:13:15.667Z,0.95
2022-09-16T02:13:47.172Z,0.80
2022-09-16T02:14:18.581Z,0.70
2022-09-16T02:14:49.968Z,0.68
2022-09-16T02:15:21.367Z,0.88
2022-09-16T02:15:52.830Z,0.98
2022-09-16T02:16:24.266Z,1.09
2022-09-16T02:16:55.693Z,0.92
2022-09-16T02:17:27.102Z,0.69
2022-09-16T02:17:58.510Z,0.97
2022-09-16T02:18:29.899Z,0.77
2022-09-16T02:19:01.329Z,0.71
2022-09-16T02:19:32.719Z,1.02
2022-09-16T02:20:04.105Z,0.94
2022-09-16T02:20:35.516Z,1.06
2022-09-16T02:21:06.896Z,1.11
2022-09-16T02:21:41.269Z,0.90
2022-09-16T02:22:14.953Z,0.72
2022-09-16T02:22:46.367Z,0.86
2022-09-16T02:23:17.779Z,0.94
2022-09-16T02:23:49.175Z,0.93
2022-09-16T02:24:20.622Z,1.03
2022-09-16T02:24:52.003Z,1.21
2022-09-16T02:25:23.399Z,1.03
2022-09-16T02:25:54.787Z,1.02
2022-09-16T02:26:26.202Z,0.98
2022-09-16T02:26:57.612Z,0.95
2022-09-16T02:27:29.003Z,1.10
2022-09-16T02:28:00.393Z,1.02
2022-09-16T02:28:31.794Z,0.84
2022-09-16T02:29:03.262Z,1.07
2022-09-16T02:29:34.647Z,1.12
2022-09-16T02:30:06.050Z,0.90
2022-09-16T02:30:37.431Z,1.05
2022-09-16T02:31:08.850Z,0.87
2022-09-16T02:31:40.355Z,1.16
2022-09-16T02:32:11.855Z,0.97
2022-09-16T02:32:43.307Z,0.96
2022-09-16T02:33:14.728Z,1.29
2022-09-16T02:33:46.106Z,0.96
2022-09-16T02:34:17.608Z,0.99
2022-09-16T02:34:48.991Z,0.80
2022-09-16T02:35:20.392Z,1.20
2022-09-16T02:35:51.774Z,1.20
2022-09-16T02:36:23.180Z,1.07
2022-09-16T02:36:54.584Z,1.22
2022-09-16T02:37:25.988Z,1.12
2022-09-16T02:37:57.387Z,1.06
2022-09-16T02:38:28.764Z,1.29
2022-09-16T02:39:00.148Z,1.40
2022-09-16T02:39:31.563Z,1.13
2022-09-16T02:40:02.982Z,1.24
2022-09-16T02:40:34.475Z,1.26
2022-09-16T02:41:05.895Z,1.14
2022-09-16T02:41:37.281Z,1.13
2022-09-16T02:42:08.679Z,1.07
2022-09-16T02:42:40.077Z,0.83
2022-09-16T02:43:11.470Z,0.96
2022-09-16T02:43:42.889Z,1.30
2022-09-16T02:44:14.388Z,0.91
2022-09-16T02:44:45.774Z,1.01
2022-09-16T02:45:17.182Z,0.87
2022-09-16T02:45:48.592Z,1.43
2022-09-16T02:46:20.030Z,1.24
2022-09-16T02:46:51.444Z,1.03
2022-09-16T02:47:22.834Z,1.12
2022-09-16T02:47:54.238Z,1.16
2022-09-16T02:48:25.623Z,1.13
2022-09-16T02:48:57.035Z,1.21
2022-09-16T02:49:28.448Z,0.77
2022-09-16T02:49:59.827Z,0.94
2022-09-16T02:50:31.379Z,1.05
2022-09-16T02:51:02.768Z,1.54
2022-09-16T02:51:34.166Z,1.15
2022-09-16T02:52:05.566Z,1.09
2022-09-16T02:52:36.960Z,1.31
2022-09-16T02:53:08.367Z,1.06
2022-09-16T02:53:39.752Z,0.94
2022-09-16T02:54:11.136Z,0.93
2022-09-16T02:54:42.604Z,0.86
2022-09-16T02:55:13.980Z,0.82
2022-09-16T02:55:45.363Z,1.03
2022-09-16T02:56:16.766Z,1.33
2022-09-16T02:56:48.200Z,1.33
2022-09-16T02:57:19.600Z,1.42
2022-09-16T02:57:51.005Z,0.93
2022-09-16T02:58:22.409Z,0.90
2022-09-16T02:58:53.800Z,0.94
2022-09-16T02:59:25.194Z,0.97
2022-09-16T02:59:56.621Z,1.13
2022-09-16T03:00:28.010Z,1.30
2022-09-16T03:00:59.396Z,1.22
2022-09-16T03:01:30.893Z,1.15
2022-09-16T03:02:02.322Z,1.36
2022-09-16T03:02:33.760Z,1.17
2022-09-16T03:03:05.279Z,1.47
2022-09-16T03:03:36.708Z,1.17
2022-09-16T03:04:08.103Z,1.15
2022-09-16T03:04:39.484Z,1.15
2022-09-16T03:05:10.956Z,1.06
2022-09-16T03:05:42.339Z,0.93
2022-09-16T03:06:13.740Z,0.81
2022-09-16T03:06:45.140Z,1.02
2022-09-16T03:07:16.530Z,1.35
2022-09-16T03:07:47.937Z,1.33
2022-09-16T03:08:19.325Z,1.01
2022-09-16T03:08:50.777Z,1.26
2022-09-16T03:09:22.157Z,0.99
2022-09-16T03:09:53.559Z,1.26
2022-09-16T03:10:24.995Z,1.13
2022-09-16T03:10:56.378Z,1.18
2022-09-16T03:11:30.266Z,0.94
2022-09-16T03:12:02.004Z,1.49
2022-09-16T03:12:33.411Z,1.25
2022-09-16T03:13:04.805Z,1.15
2022-09-16T03:13:36.216Z,1.22
2022-09-16T03:14:07.621Z,1.05
2022-09-16T03:14:39.029Z,1.23
2022-09-16T03:15:10.421Z,1.10
2022-09-16T03:15:41.968Z,0.90
2022-09-16T03:16:13.448Z,1.49
2022-09-16T03:16:46.161Z,1.04
2022-09-16T03:17:17.702Z,1.30
2022-09-16T03:17:49.099Z,1.30
2022-09-16T03:18:20.489Z,1.51
2022-09-16T03:18:51.895Z,1.32
2022-09-16T03:19:23.296Z,1.44
2022-09-16T03:19:54.693Z,1.25
2022-09-16T03:20:26.089Z,0.97
2022-09-16T03:20:57.620Z,1.32
2022-09-16T03:21:29.019Z,1.32
2022-09-16T03:22:00.418Z,1.03
2022-09-16T03:22:31.799Z,0.88
2022-09-16T03:23:03.210Z,1.43
2022-09-16T03:23:34.617Z,1.29
2022-09-16T03:24:06.037Z,1.20
2022-09-16T03:24:37.424Z,1.34
2022-09-16T03:25:08.859Z,1.03
2022-09-16T03:25:40.242Z,1.45
2022-09-16T03:26:11.800Z,1.49
2022-09-16T03:26:43.180Z,1.64
2022-09-16T03:27:14.582Z,1.42
2022-09-16T03:27:45.964Z,1.21
2022-09-16T03:28:17.352Z,1.14
2022-09-16T03:28:48.739Z,0.91
2022-09-16T03:29:20.126Z,1.07
2022-09-16T03:29:51.521Z,1.14
2022-09-16T03:30:22.920Z,1.15
2022-09-16T03:30:54.338Z,1.27
2022-09-16T03:31:26.013Z,1.33
2022-09-16T03:31:57.426Z,1.29
2022-09-16T03:32:28.828Z,1.15
2022-09-16T03:33:00.212Z,1.06
2022-09-16T03:33:31.619Z,1.21
2022-09-16T03:34:03.000Z,0.97
2022-09-16T03:34:34.390Z,1.23
2022-09-16T03:35:05.767Z,1.13
2022-09-16T03:35:37.149Z,1.24
2022-09-16T03:36:08.536Z,1.18
2022-09-16T03:36:40.016Z,1.00
2022-09-16T03:37:11.399Z,1.22
2022-09-16T03:37:42.789Z,1.43
2022-09-16T03:38:14.171Z,1.54
2022-09-16T03:38:45.581Z,1.35
2022-09-16T03:39:16.964Z,1.14
2022-09-16T03:39:48.415Z,1.13
2022-09-16T03:40:20.006Z,1.55
2022-09-16T03:40:51.457Z,1.58
2022-09-16T03:41:22.862Z,1.47
2022-09-16T03:41:54.269Z,0.95
2022-09-16T03:42:25.653Z,1.28
2022-09-16T03:42:57.066Z,1.24
2022-09-16T03:43:28.454Z,1.50
2022-09-16T03:44:03.744Z,1.28
2022-09-16T03:44:35.510Z,1.21
2022-09-16T03:45:06.904Z,1.32
2022-09-16T03:45:38.298Z,1.20
2022-09-16T03:46:09.705Z,0.78
2022-09-16T03:46:41.181Z,1.21
2022-09-16T03:47:12.626Z,1.23
2022-09-16T03:47:44.014Z,1.09
2022-09-16T03:48:15.400Z,1.21
2022-09-16T03:48:46.783Z,1.21
2022-09-16T03:49:18.199Z,1.17
2022-09-16T03:49:49.604Z,1.35
2022-09-16T03:50:21.007Z,1.41
2022-09-16T03:50:52.436Z,1.59
2022-09-16T03:51:23.831Z,1.34
2022-09-16T03:51:55.231Z,1.37
2022-09-16T03:52:26.690Z,1.24
2022-09-16T03:52:58.079Z,0.98
2022-09-16T03:53:29.463Z,1.26
2022-09-16T03:54:00.867Z,1.42
2022-09-16T03:54:32.267Z,1.25
2022-09-16T03:55:03.661Z,1.22
2022-09-16T03:55:35.045Z,1.22
2022-09-16T03:56:06.432Z,1.59
2022-09-16T03:56:37.832Z,0.96
2022-09-16T03:57:09.261Z,1.34
2022-09-16T03:57:40.651Z,1.31
2022-09-16T03:58:12.036Z,1.26
2022-09-16T03:58:43.443Z,1.02
2022-09-16T03:59:14.825Z,1.33
2022-09-16T03:59:46.212Z,1.51
2022-09-16T04:00:17.618Z,1.19
2022-09-16T04:00:49.005Z,1.19
2022-09-16T04:01:21.866Z,1.45
2022-09-16T04:01:53.314Z,1.38
2022-09-16T04:02:24.815Z,1.64
2022-09-16T04:02:56.308Z,1.44
2022-09-16T04:03:31.268Z,1.43
2022-09-16T04:04:04.656Z,1.52
2022-09-16T04:04:36.052Z,1.11
2022-09-16T04:05:07.456Z,1.25
2022-09-16T04:05:38.862Z,1.46
2022-09-16T04:06:10.248Z,1.60
2022-09-16T04:06:41.641Z,1.48
2022-09-16T04:07:13.038Z,1.26
2022-09-16T04:07:44.491Z,1.21
2022-09-16T04:08:15.873Z,1.30
2022-09-16T04:08:47.334Z,1.30
2022-09-16T04:09:18.829Z,1.49
2022-09-16T04:09:50.214Z,1.15
2022-09-16T04:10:21.596Z,1.56
2022-09-16T04:10:52.975Z,1.47
2022-09-16T04:11:24.380Z,1.35
2022-09-16T04:11:55.769Z,1.18
2022-09-16T04:12:27.164Z,1.24
2022-09-16T04:12:58.555Z,1.26
2022-09-16T04:13:29.944Z,1.21
2022-09-16T04:14:01.345Z,1.33
2022-09-16T04:14:32.788Z,1.67
2022-09-16T04:15:04.162Z,1.56
2022-09-16T04:15:35.616Z,1.56
2022-09-16T04:16:07.062Z,1.22
2022-09-16T04:16:42.920Z,1.12
2022-09-16T04:17:16.314Z,0.96
2022-09-16T04:17:47.723Z,1.54
2022-09-16T04:18:19.106Z,1.68
2022-09-16T04:18:50.517Z,1.23
2022-09-16T04:19:21.923Z,1.21
2022-09-16T04:19:53.368Z,1.65
2022-09-16T04:20:24.755Z,1.78
2022-09-16T04:20:56.139Z,1.42
2022-09-16T04:21:27.529Z,0.94
2022-09-16T04:21:58.911Z,1.27
2022-09-16T04:22:30.317Z,1.33
2022-09-16T04:23:01.739Z,1.21
2022-09-16T04:23:33.141Z,1.28
2022-09-16T04:24:04.533Z,1.17
2022-09-16T04:24:35.919Z,1.42
2022-09-16T04:25:07.361Z,1.52
2022-09-16T04:25:38.759Z,1.26
2022-09-16T04:26:10.147Z,1.46
2022-09-16T04:26:41.574Z,1.22
2022-09-16T04:27:12.958Z,1.22
2022-09-16T04:27:44.423Z,1.42
2022-09-16T04:28:15.810Z,1.15
2022-09-16T04:28:47.208Z,1.45
2022-09-16T04:29:18.591Z,1.16
2022-09-16T04:29:49.977Z,1.28
2022-09-16T04:30:21.426Z,1.53
2022-09-16T04:30:52.920Z,1.34
2022-09-16T04:31:24.437Z,1.25
2022-09-16T04:31:55.891Z,1.27
2022-09-16T04:32:27.275Z,1.65
2022-09-16T04:32:58.676Z,1.35
2022-09-16T04:33:30.059Z,1.11
2022-09-16T04:34:01.463Z,1.41
2022-09-16T04:34:32.854Z,1.46
2022-09-16T04:35:04.242Z,1.15
2022-09-16T04:35:35.678Z,1.25
2022-09-16T04:36:07.066Z,1.33
2022-09-16T04:36:38.465Z,1.40
2022-09-16T04:37:09.851Z,1.32
2022-09-16T04:37:41.235Z,1.46
2022-09-16T04:38:12.666Z,1.63
2022-09-16T04:38:44.110Z,1.69
2022-09-16T04:39:15.546Z,1.77
2022-09-16T04:39:47.024Z,1.59
2022-09-16T04:40:18.523Z,1.32
2022-09-16T04:40:50.030Z,1.45
2022-09-16T04:41:21.411Z,1.39
2022-09-16T04:41:52.793Z,1.21
2022-09-16T04:42:24.205Z,1.82
2022-09-16T04:42:55.610Z,1.50
2022-09-16T04:43:26.995Z,1.29
2022-09-16T04:43:58.392Z,1.84
2022-09-16T04:44:29.781Z,1.29
2022-09-16T04:45:01.220Z,1.59
2022-09-16T04:45:32.626Z,1.50
2022-09-16T04:46:04.304Z,1.60
2022-09-16T04:46:35.788Z,1.09
2022-09-16T04:47:07.209Z,1.61
2022-09-16T04:47:38.620Z,1.82
2022-09-16T04:48:10.005Z,1.45
2022-09-16T04:48:41.386Z,1.51
2022-09-16T04:49:12.775Z,1.68
2022-09-16T04:49:44.160Z,1.34
2022-09-16T04:50:15.543Z,1.48
2022-09-16T04:50:46.923Z,1.40
2022-09-16T04:51:18.470Z,1.20
2022-09-16T04:51:49.856Z,1.32
2022-09-16T04:52:21.260Z,1.36
2022-09-16T04:52:52.665Z,1.44
2022-09-16T04:53:24.055Z,1.46
2022-09-16T04:53:55.477Z,1.32
2022-09-16T04:54:26.903Z,1.42
2022-09-16T04:54:58.437Z,1.24
2022-09-16T04:55:29.884Z,1.45
2022-09-16T04:56:01.284Z,1.26
2022-09-16T04:56:32.883Z,1.36
2022-09-16T04:57:04.269Z,1.70
2022-09-16T04:57:35.655Z,1.69
2022-09-16T04:58:07.039Z,1.56
2022-09-16T04:58:38.436Z,1.62
2022-09-16T04:59:09.823Z,1.60
2022-09-16T04:59:41.204Z,1.49
2022-09-16T05:00:12.592Z,1.56
2022-09-16T05:00:43.991Z,1.14
2022-09-16T05:01:15.462Z,1.34
2022-09-16T05:01:47.036Z,1.59
2022-09-16T05:02:18.475Z,1.61
2022-09-16T05:02:49.869Z,1.52
2022-09-16T05:03:21.308Z,1.11
2022-09-16T05:03:52.721Z,1.34
2022-09-16T05:04:24.122Z,1.41
2022-09-16T05:04:55.526Z,1.77
2022-09-16T05:05:26.912Z,1.61
2022-09-16T05:05:58.332Z,2.22
2022-09-16T05:06:29.720Z,1.67
2022-09-16T05:07:01.149Z,1.72
2022-09-16T05:07:32.561Z,1.10
2022-09-16T05:08:03.960Z,1.34
2022-09-16T05:08:35.367Z,1.42
2022-09-16T05:09:06.751Z,1.37
2022-09-16T05:09:38.139Z,1.49
2022-09-16T05:10:09.521Z,1.20
2022-09-16T05:10:40.909Z,1.59
2022-09-16T05:11:12.291Z,1.41
2022-09-16T05:11:43.675Z,1.16
2022-09-16T05:12:15.111Z,1.29
2022-09-16T05:12:49.403Z,1.69
2022-09-16T05:13:20.953Z,1.78
2022-09-16T05:13:52.370Z,1.63
2022-09-16T05:14:23.768Z,1.73
2022-09-16T05:14:55.187Z,1.68
2022-09-16T05:15:26.586Z,1.43
2022-09-16T05:15:58.012Z,1.05
2022-09-16T05:16:29.504Z,1.58
2022-09-16T05:17:00.954Z,1.41
2022-09-16T05:17:49.727Z,1.62
2022-09-16T05:18:22.077Z,1.53
2022-09-16T05:18:53.461Z,1.35
2022-09-16T05:19:24.843Z,1.05
2022-09-16T05:19:56.230Z,1.23
2022-09-16T05:20:27.627Z,1.28
2022-09-16T05:20:59.030Z,1.44
2022-09-16T05:21:30.417Z,1.21
2022-09-16T05:22:01.804Z,1.48
2022-09-16T05:22:33.292Z,1.83
2022-09-16T05:23:04.682Z,1.74
2022-09-16T05:23:36.067Z,1.58
2022-09-16T05:24:07.444Z,1.55
2022-09-16T05:24:38.831Z,1.68
2022-09-16T05:25:10.219Z,1.62
2022-09-16T05:25:41.601Z,1.27
2022-09-16T05:26:13.007Z,1.44
2022-09-16T05:26:44.408Z,1.54
2022-09-16T05:27:15.796Z,1.47
2022-09-16T05:27:47.258Z,1.32
2022-09-16T05:28:18.662Z,1.46
2022-09-16T05:28:50.048Z,1.64
2022-09-16T05:29:21.437Z,1.63
2022-09-16T05:29:52.836Z,1.35
2022-09-16T05:30:26.164Z,1.46
2022-09-16T05:30:57.752Z,1.39
2022-09-16T05:31:29.159Z,1.38
2022-09-16T05:32:00.540Z,1.56
2022-09-16T05:32:31.926Z,1.68
2022-09-16T05:33:03.371Z,1.47
2022-09-16T05:33:34.778Z,1.41
2022-09-16T05:34:06.167Z,1.63
2022-09-16T05:34:37.556Z,1.39
2022-09-16T05:35:08.965Z,1.84
2022-09-16T05:35:40.365Z,1.35
2022-09-16T05:36:11.761Z,1.66
2022-09-16T05:36:43.145Z,1.49
2022-09-16T05:37:14.554Z,1.92
2022-09-16T05:37:45.941Z,1.76
2022-09-16T05:38:17.358Z,1.39
2022-09-16T05:39:10.940Z,1.42
2022-09-16T05:39:40.132Z,1.72
2022-09-16T05:40:11.584Z,1.56
2022-09-16T05:40:43.016Z,1.32
2022-09-16T05:41:14.421Z,0.93
2022-09-16T05:41:45.815Z,1.49
2022-09-16T05:42:17.220Z,1.57
2022-09-16T05:42:48.687Z,1.54
2022-09-16T05:43:20.105Z,1.62
2022-09-16T05:43:51.493Z,1.73
2022-09-16T05:44:22.902Z,1.48
2022-09-16T05:44:54.291Z,1.41
2022-09-16T05:45:30.020Z,1.42
2022-09-16T05:46:03.600Z,1.54
2022-09-16T05:46:35.072Z,1.35
2022-09-16T05:47:06.458Z,1.25
2022-09-16T05:47:37.859Z,1.34
2022-09-16T05:48:09.245Z,1.89
2022-09-16T05:48:40.743Z,2.10
2022-09-16T05:49:12.144Z,1.83
2022-09-16T05:49:43.532Z,1.56
2022-09-16T05:50:14.928Z,1.39
2022-09-16T05:50:46.312Z,1.81
2022-09-16T05:51:20.604Z,1.48
2022-09-16T05:51:52.200Z,1.88
2022-09-16T05:52:23.579Z,1.74
2022-09-16T05:52:54.965Z,1.88
2022-09-16T05:53:26.359Z,1.58
2022-09-16T05:53:57.767Z,1.86
2022-09-16T05:54:29.167Z,1.97
2022-09-16T05:55:00.906Z,1.64
2022-09-16T05:55:32.369Z,1.27
2022-09-16T05:56:04.085Z,1.70
2022-09-16T05:56:35.584Z,1.60
2022-09-16T05:57:07.504Z,1.40
2022-09-16T05:57:39.401Z,1.64
2022-09-16T05:58:11.364Z,1.75
2022-09-16T05:58:43.135Z,1.60
2022-09-16T05:59:14.931Z,1.55
2022-09-16T05:59:46.751Z,1.64
2022-09-16T06:00:18.447Z,1.45
2022-09-16T06:00:50.194Z,1.65
2022-09-16T06:01:22.175Z,1.27
2022-09-16T06:01:54.097Z,1.60
2022-09-16T06:02:26.079Z,1.41
2022-09-16T06:02:57.965Z,1.70
2022-09-16T06:03:29.882Z,1.80
2022-09-16T06:04:01.730Z,1.96
2022-09-16T06:04:33.443Z,1.33
2022-09-16T06:05:06.202Z,1.76
2022-09-16T06:05:41.477Z,1.48
2022-09-16T06:06:18.307Z,1.54
2022-09-16T06:06:51.217Z,1.79
2022-09-16T06:07:35.228Z,1.46
2022-09-16T06:08:11.773Z,2.04
2022-09-16T06:08:47.865Z,1.73
2022-09-16T06:09:25.258Z,1.89
2022-09-16T06:09:57.682Z,1.68
2022-09-16T06:10:30.470Z,2.21
2022-09-16T06:12:00.982Z,1.78
2022-09-16T06:12:38.161Z,1.45
2022-09-16T06:13:10.897Z,1.98
2022-09-16T06:13:42.991Z,1.68
2022-09-16T06:14:15.143Z,1.64
2022-09-16T06:14:48.107Z,1.54
2022-09-16T06:15:22.477Z,1.65
2022-09-16T06:15:55.049Z,1.78
2022-09-16T06:16:27.262Z,1.46
2022-09-16T06:16:59.136Z,1.73
2022-09-16T06:17:32.016Z,2.10
2022-09-16T06:18:06.404Z,1.73
2022-09-16T06:18:38.111Z,1.50
2022-09-16T06:19:09.498Z,1.53
2022-09-16T06:19:40.922Z,1.73
2022-09-16T06:20:12.303Z,1.96
2022-09-16T06:20:43.824Z,1.50
2022-09-16T06:21:19.565Z,1.70
2022-09-16T06:21:51.044Z,1.23
2022-09-16T06:22:22.545Z,1.94
2022-09-16T06:22:54.098Z,1.66
2022-09-16T06:23:25.555Z,1.84
2022-09-16T06:23:57.158Z,2.00
2022-09-16T06:24:28.697Z,1.63
2022-09-16T06:25:00.433Z,1.49
2022-09-16T06:25:32.140Z,1.96
2022-09-16T06:26:03.934Z,1.64
2022-09-16T06:26:35.352Z,1.94
2022-09-16T06:27:06.737Z,1.81
2022-09-16T06:27:38.222Z,2.21
2022-09-16T06:28:09.650Z,1.93
2022-09-16T06:28:41.160Z,1.95
2022-09-16T06:29:12.666Z,2.01
2022-09-16T06:29:44.118Z,2.01
2022-09-16T06:30:15.717Z,1.93
2022-09-16T06:30:47.270Z,1.65
2022-09-16T06:31:19.840Z,1.55
2022-09-16T06:31:51.658Z,1.53
2022-09-16T06:32:23.113Z,1.92
2022-09-16T06:32:55.727Z,1.60
2022-09-16T06:33:27.201Z,1.80
2022-09-16T06:33:58.704Z,1.29
2022-09-16T06:34:30.508Z,1.63
2022-09-16T06:35:01.991Z,1.83
2022-09-16T06:35:33.614Z,2.06
2022-09-16T06:36:05.044Z,1.39
2022-09-16T06:36:37.165Z,2.02
2022-09-16T06:37:10.089Z,2.02
2022-09-16T06:37:41.468Z,1.97
2022-09-16T06:38:12.989Z,1.73
2022-09-16T06:38:44.366Z,1.98
2022-09-16T06:39:15.759Z,1.63
2022-09-16T06:39:47.194Z,1.16
2022-09-16T06:40:18.738Z,1.96
2022-09-16T06:40:50.189Z,1.84
2022-09-16T06:41:21.587Z,1.95
2022-09-16T06:41:53.022Z,1.85
2022-09-16T06:42:24.420Z,2.02
2022-09-16T06:43:00.010Z,1.79
2022-09-16T06:43:31.738Z,1.92
2022-09-16T06:44:03.140Z,1.91
2022-09-16T06:44:34.543Z,1.80
2022-09-16T06:45:05.934Z,1.97
2022-09-16T06:45:37.791Z,1.86
2022-09-16T06:46:09.786Z,1.61
2022-09-16T06:46:41.212Z,1.83
2022-09-16T06:47:12.622Z,1.89
2022-09-16T06:47:44.082Z,1.87
2022-09-16T06:48:15.737Z,1.91
2022-09-16T06:48:48.313Z,2.09
2022-09-16T06:49:19.741Z,2.01
2022-09-16T06:49:51.201Z,2.33
2022-09-16T06:50:22.943Z,2.00
2022-09-16T06:50:54.352Z,1.72
2022-09-16T06:51:25.734Z,1.85
2022-09-16T06:51:57.117Z,1.74
2022-09-16T06:52:28.506Z,1.91
2022-09-16T06:52:59.913Z,2.04
2022-09-16T06:53:31.299Z,1.78
2022-09-16T06:54:02.735Z,2.00
2022-09-16T06:54:34.136Z,2.11
2022-09-16T06:55:05.536Z,2.01
2022-09-16T06:55:37.368Z,1.93
2022-09-16T06:56:09.181Z,1.94
2022-09-16T06:56:40.568Z,1.90
2022-09-16T06:57:12.509Z,2.07
2022-09-16T06:57:43.973Z,2.08
2022-09-16T06:58:15.372Z,1.77
2022-09-16T06:58:46.782Z,2.30
2022-09-16T06:59:18.348Z,2.06
2022-09-16T06:59:49.743Z,2.17
2022-09-16T07:00:21.203Z,1.61
2022-09-16T07:00:52.637Z,1.87
2022-09-16T07:01:24.098Z,2.22
2022-09-16T07:01:55.555Z,1.91